Terminal Aerodrome Forecast
Issued by NWS Blacksburg, VA

Current Version | Previous Version | Graphics & Text | Print | Product List | Glossary On
Versions: 1 2 3 4 5 6 7 8 9 10 11 12 13 14 15 16 17 18 19 20 21 22 23 24 25 26 27 28 29 30 31 32 33 34 35 36 37 38 39 40 41
000
FTUS41 KRNK 221414 AAA
TAFBLF
TAF AMD
KBLF 221414Z 2214/2312 11004KT 3SM -RA BR OVC006
      TEMPO 2214/2215 1SM -RA BR SCT006 OVC060
     FM221800 18004KT 5SM -RA BR OVC020
      TEMPO 2218/2220 2SM -RA OVC007
     FM230100 17004KT 4SM BR OVC015=

USA.gov is the U.S. government's official web portal to all federal, state and local government web resources and services.